sensor_id;sensor_type;location;lat;lon;timestamp;temperature;humidity
10046;DHT22;5063;50.878;4.742;2023-04-25T00:01:25;8.80;99.90
10046;DHT22;5063;50.878;4.742;2023-04-25T00:03:50;8.80;99.90
10046;DHT22;5063;50.878;4.742;2023-04-25T00:06:16;8.80;99.90
10046;DHT22;5063;50.878;4.742;2023-04-25T00:08:43;8.80;99.90
10046;DHT22;5063;50.878;4.742;2023-04-25T00:11:09;8.80;99.90
10046;DHT22;5063;50.878;4.742;2023-04-25T00:13:35;8.80;99.90
10046;DHT22;5063;50.878;4.742;2023-04-25T00:16:00;8.80;99.90
10046;DHT22;5063;50.878;4.742;2023-04-25T00:18:28;8.80;99.90
10046;DHT22;5063;50.878;4.742;2023-04-25T00:20:58;8.70;99.90
10046;DHT22;5063;50.878;4.742;2023-04-25T00:23:24;8.80;99.90
10046;DHT22;5063;50.878;4.742;2023-04-25T00:25:50;8.70;99.90
10046;DHT22;5063;50.878;4.742;2023-04-25T00:28:16;8.70;99.90
10046;DHT22;5063;50.878;4.742;2023-04-25T00:30:42;8.80;99.90
10046;DHT22;5063;50.878;4.742;2023-04-25T00:33:08;8.80;99.90
10046;DHT22;5063;50.878;4.742;2023-04-25T00:35:35;8.80;99.90
10046;DHT22;5063;50.878;4.742;2023-04-25T00:38:01;8.80;99.90
10046;DHT22;5063;50.878;4.742;2023-04-25T00:40:28;8.80;99.90
10046;DHT22;5063;50.878;4.742;2023-04-25T00:42:54;8.80;99.90
10046;DHT22;5063;50.878;4.742;2023-04-25T00:45:20;8.80;99.90
10046;DHT22;5063;50.878;4.742;2023-04-25T00:47:46;8.80;99.90
10046;DHT22;5063;50.878;4.742;2023-04-25T00:50:15;8.80;99.90
10046;DHT22;5063;50.878;4.742;2023-04-25T00:52:43;8.60;99.90
10046;DHT22;5063;50.878;4.742;2023-04-25T00:55:10;8.80;99.90
10046;DHT22;5063;50.878;4.742;2023-04-25T00:57:38;8.80;99.90
10046;DHT22;5063;50.878;4.742;2023-04-25T01:00:05;8.60;99.90
10046;DHT22;5063;50.878;4.742;2023-04-25T01:02:32;8.70;99.90
10046;DHT22;5063;50.878;4.742;2023-04-25T01:04:58;8.70;99.90
10046;DHT22;5063;50.878;4.742;2023-04-25T01:07:24;8.80;99.90
10046;DHT22;5063;50.878;4.742;2023-04-25T01:09:52;8.70;99.90
10046;DHT22;5063;50.878;4.742;2023-04-25T01:12:17;8.70;99.90
10046;DHT22;5063;50.878;4.742;2023-04-25T01:14:43;8.70;99.90
10046;DHT22;5063;50.878;4.742;2023-04-25T01:17:10;8.70;99.90
10046;DHT22;5063;50.878;4.742;2023-04-25T01:19:36;8.60;99.90
10046;DHT22;5063;50.878;4.742;2023-04-25T01:22:03;8.70;99.90
10046;DHT22;5063;50.878;4.742;2023-04-25T01:24:31;8.60;99.90
10046;DHT22;5063;50.878;4.742;2023-04-25T01:26:58;8.70;99.90
10046;DHT22;5063;50.878;4.742;2023-04-25T01:29:24;8.80;99.90
10046;DHT22;5063;50.878;4.742;2023-04-25T01:31:51;8.60;99.90
10046;DHT22;5063;50.878;4.742;2023-04-25T01:34:17;8.60;99.90
10046;DHT22;5063;50.878;4.742;2023-04-25T01:36:43;8.60;99.90
10046;DHT22;5063;50.878;4.742;2023-04-25T01:39:09;8.60;99.90
10046;DHT22;5063;50.878;4.742;2023-04-25T01:41:35;8.60;99.90
10046;DHT22;5063;50.878;4.742;2023-04-25T01:44:02;8.60;99.90
10046;DHT22;5063;50.878;4.742;2023-04-25T01:46:27;8.50;99.90
10046;DHT22;5063;50.878;4.742;2023-04-25T01:48:53;8.40;99.90
10046;DHT22;5063;50.878;4.742;2023-04-25T01:51:19;8.40;99.90
10046;DHT22;5063;50.878;4.742;2023-04-25T01:53:45;8.40;99.90
10046;DHT22;5063;50.878;4.742;2023-04-25T01:56:11;8.60;99.90
10046;DHT22;5063;50.878;4.742;2023-04-25T01:58:36;8.30;99.90
10046;DHT22;5063;50.878;4.742;2023-04-25T02:01:02;8.30;99.90
10046;DHT22;5063;50.878;4.742;2023-04-25T02:03:30;8.30;99.90
10046;DHT22;5063;50.878;4.742;2023-04-25T02:05:56;8.20;99.90
10046;DHT22;5063;50.878;4.742;2023-04-25T02:08:22;8.30;99.90
10046;DHT22;5063;50.878;4.742;2023-04-25T02:10:47;8.20;99.90
10046;DHT22;5063;50.878;4.742;2023-04-25T02:13:13;8.20;99.90
10046;DHT22;5063;50.878;4.742;2023-04-25T02:15:39;8.20;99.90
10046;DHT22;5063;50.878;4.742;2023-04-25T02:18:05;8.20;99.90
10046;DHT22;5063;50.878;4.742;2023-04-25T02:20:31;8.30;99.90
10046;DHT22;5063;50.878;4.742;2023-04-25T02:22:57;8.10;99.90
10046;DHT22;5063;50.878;4.742;2023-04-25T02:25:23;8.10;99.90
10046;DHT22;5063;50.878;4.742;2023-04-25T02:27:49;8.10;99.90
10046;DHT22;5063;50.878;4.742;2023-04-25T02:30:15;8.10;99.90
10046;DHT22;5063;50.878;4.742;2023-04-25T02:32:41;8.10;99.90
10046;DHT22;5063;50.878;4.742;2023-04-25T02:35:07;8.10;99.90
10046;DHT22;5063;50.878;4.742;2023-04-25T02:37:34;8.10;99.90
10046;DHT22;5063;50.878;4.742;2023-04-25T02:40:00;8.00;99.90
10046;DHT22;5063;50.878;4.742;2023-04-25T02:42:26;8.30;99.90
10046;DHT22;5063;50.878;4.742;2023-04-25T02:44:53;8.10;99.90
10046;DHT22;5063;50.878;4.742;2023-04-25T02:47:18;8.00;99.90
10046;DHT22;5063;50.878;4.742;2023-04-25T02:49:45;8.10;99.90
10046;DHT22;5063;50.878;4.742;2023-04-25T02:52:11;8.10;99.90
10046;DHT22;5063;50.878;4.742;2023-04-25T02:54:39;8.20;99.90
10046;DHT22;5063;50.878;4.742;2023-04-25T02:57:05;8.00;99.90
10046;DHT22;5063;50.878;4.742;2023-04-25T02:59:31;8.00;99.90
10046;DHT22;5063;50.878;4.742;2023-04-25T03:01:56;8.00;99.90
10046;DHT22;5063;50.878;4.742;2023-04-25T03:04:22;8.10;99.90
10046;DHT22;5063;50.878;4.742;2023-04-25T03:06:50;8.00;99.90
10046;DHT22;5063;50.878;4.742;2023-04-25T03:09:16;7.90;99.90
10046;DHT22;5063;50.878;4.742;2023-04-25T03:11:43;8.00;99.90
10046;DHT22;5063;50.878;4.742;2023-04-25T03:14:09;8.00;99.90
10046;DHT22;5063;50.878;4.742;2023-04-25T03:16:35;7.90;99.90
10046;DHT22;5063;50.878;4.742;2023-04-25T03:19:02;7.90;99.90
10046;DHT22;5063;50.878;4.742;2023-04-25T03:21:27;8.00;99.90
10046;DHT22;5063;50.878;4.742;2023-04-25T03:23:53;7.90;99.90
10046;DHT22;5063;50.878;4.742;2023-04-25T03:26:19;8.10;99.90
10046;DHT22;5063;50.878;4.742;2023-04-25T03:28:45;8.00;99.90
10046;DHT22;5063;50.878;4.742;2023-04-25T03:31:10;7.90;99.90
10046;DHT22;5063;50.878;4.742;2023-04-25T03:33:36;7.90;99.90
10046;DHT22;5063;50.878;4.742;2023-04-25T03:36:02;8.00;99.90
10046;DHT22;5063;50.878;4.742;2023-04-25T03:38:28;8.00;99.90
10046;DHT22;5063;50.878;4.742;2023-04-25T03:40:54;8.00;99.90
10046;DHT22;5063;50.878;4.742;2023-04-25T03:43:21;7.90;99.90
10046;DHT22;5063;50.878;4.742;2023-04-25T03:45:47;7.90;99.90
10046;DHT22;5063;50.878;4.742;2023-04-25T03:48:13;7.90;99.90
10046;DHT22;5063;50.878;4.742;2023-04-25T03:50:38;7.80;99.90
10046;DHT22;5063;50.878;4.742;2023-04-25T03:53:04;7.70;99.90
10046;DHT22;5063;50.878;4.742;2023-04-25T03:55:30;7.70;99.90
10046;DHT22;5063;50.878;4.742;2023-04-25T03:57:57;7.60;99.90
10046;DHT22;5063;50.878;4.742;2023-04-25T04:00:24;7.60;99.90
10046;DHT22;5063;50.878;4.742;2023-04-25T04:02:49;7.50;99.90
10046;DHT22;5063;50.878;4.742;2023-04-25T04:05:16;7.50;99.90
10046;DHT22;5063;50.878;4.742;2023-04-25T04:07:42;7.40;99.90
10046;DHT22;5063;50.878;4.742;2023-04-25T04:10:11;7.70;99.90
10046;DHT22;5063;50.878;4.742;2023-04-25T04:12:38;7.40;99.90
10046;DHT22;5063;50.878;4.742;2023-04-25T04:15:05;7.40;99.90
10046;DHT22;5063;50.878;4.742;2023-04-25T04:17:31;7.40;99.90
10046;DHT22;5063;50.878;4.742;2023-04-25T04:19:57;7.40;99.90
10046;DHT22;5063;50.878;4.742;2023-04-25T04:22:23;7.30;99.90
10046;DHT22;5063;50.878;4.742;2023-04-25T04:24:49;7.40;99.90
10046;DHT22;5063;50.878;4.742;2023-04-25T04:27:19;7.40;99.90
10046;DHT22;5063;50.878;4.742;2023-04-25T04:29:45;7.30;99.90
10046;DHT22;5063;50.878;4.742;2023-04-25T04:32:12;7.40;99.90
10046;DHT22;5063;50.878;4.742;2023-04-25T04:34:38;7.40;99.90
10046;DHT22;5063;50.878;4.742;2023-04-25T04:37:05;7.50;99.90
10046;DHT22;5063;50.878;4.742;2023-04-25T04:39:32;7.50;99.90
10046;DHT22;5063;50.878;4.742;2023-04-25T04:41:58;7.40;99.90
10046;DHT22;5063;50.878;4.742;2023-04-25T04:44:24;7.50;99.90
10046;DHT22;5063;50.878;4.742;2023-04-25T04:46:50;7.40;99.90
10046;DHT22;5063;50.878;4.742;2023-04-25T04:49:17;7.60;99.90
10046;DHT22;5063;50.878;4.742;2023-04-25T04:51:43;7.50;99.90
10046;DHT22;5063;50.878;4.742;2023-04-25T04:54:12;7.60;99.90
10046;DHT22;5063;50.878;4.742;2023-04-25T04:56:38;7.60;99.90
10046;DHT22;5063;50.878;4.742;2023-04-25T04:59:04;7.60;99.90
10046;DHT22;5063;50.878;4.742;2023-04-25T05:01:30;7.60;99.90
10046;DHT22;5063;50.878;4.742;2023-04-25T05:03:56;7.60;99.90
10046;DHT22;5063;50.878;4.742;2023-04-25T05:06:27;7.80;99.90
10046;DHT22;5063;50.878;4.742;2023-04-25T05:08:55;7.70;99.90
10046;DHT22;5063;50.878;4.742;2023-04-25T05:11:22;7.80;99.90
10046;DHT22;5063;50.878;4.742;2023-04-25T05:13:47;7.80;99.90
10046;DHT22;5063;50.878;4.742;2023-04-25T05:16:13;7.90;99.90
10046;DHT22;5063;50.878;4.742;2023-04-25T05:18:40;7.80;99.90
10046;DHT22;5063;50.878;4.742;2023-04-25T05:21:05;7.90;99.90
10046;DHT22;5063;50.878;4.742;2023-04-25T05:23:32;7.90;99.90
10046;DHT22;5063;50.878;4.742;2023-04-25T05:25:58;7.90;99.90
10046;DHT22;5063;50.878;4.742;2023-04-25T05:28:24;7.90;99.90
10046;DHT22;5063;50.878;4.742;2023-04-25T05:30:50;7.80;99.90
10046;DHT22;5063;50.878;4.742;2023-04-25T05:33:16;7.80;99.90
10046;DHT22;5063;50.878;4.742;2023-04-25T05:35:42;7.70;99.90
10046;DHT22;5063;50.878;4.742;2023-04-25T05:38:08;7.80;99.90
10046;DHT22;5063;50.878;4.742;2023-04-25T05:40:34;7.80;99.90
10046;DHT22;5063;50.878;4.742;2023-04-25T05:43:00;7.80;99.90
10046;DHT22;5063;50.878;4.742;2023-04-25T05:45:26;7.70;99.90
10046;DHT22;5063;50.878;4.742;2023-04-25T05:47:51;7.90;99.90
10046;DHT22;5063;50.878;4.742;2023-04-25T05:50:17;7.80;99.90
10046;DHT22;5063;50.878;4.742;2023-04-25T05:52:43;7.90;99.90
10046;DHT22;5063;50.878;4.742;2023-04-25T05:55:09;8.00;99.90
10046;DHT22;5063;50.878;4.742;2023-04-25T05:57:35;8.00;99.90
10046;DHT22;5063;50.878;4.742;2023-04-25T06:00:01;7.90;99.90
10046;DHT22;5063;50.878;4.742;2023-04-25T06:02:27;8.20;99.90
10046;DHT22;5063;50.878;4.742;2023-04-25T06:04:53;8.00;99.90
10046;DHT22;5063;50.878;4.742;2023-04-25T06:07:21;8.00;99.90
10046;DHT22;5063;50.878;4.742;2023-04-25T06:09:47;8.10;99.90
10046;DHT22;5063;50.878;4.742;2023-04-25T06:12:13;8.00;99.90
10046;DHT22;5063;50.878;4.742;2023-04-25T06:14:39;8.20;99.90
10046;DHT22;5063;50.878;4.742;2023-04-25T06:17:04;8.20;99.90
10046;DHT22;5063;50.878;4.742;2023-04-25T06:19:37;8.10;99.90
10046;DHT22;5063;50.878;4.742;2023-04-25T06:22:03;8.20;99.90
10046;DHT22;5063;50.878;4.742;2023-04-25T06:24:28;8.40;99.90
10046;DHT22;5063;50.878;4.742;2023-04-25T06:26:54;8.40;99.90
10046;DHT22;5063;50.878;4.742;2023-04-25T06:29:20;8.60;99.90
10046;DHT22;5063;50.878;4.742;2023-04-25T06:31:46;8.80;99.90
10046;DHT22;5063;50.878;4.742;2023-04-25T06:34:12;9.10;99.90
10046;DHT22;5063;50.878;4.742;2023-04-25T06:36:38;9.10;99.90
10046;DHT22;5063;50.878;4.742;2023-04-25T06:39:04;9.30;99.90
10046;DHT22;5063;50.878;4.742;2023-04-25T06:41:30;9.40;99.90
10046;DHT22;5063;50.878;4.742;2023-04-25T06:43:55;9.30;99.90
10046;DHT22;5063;50.878;4.742;2023-04-25T06:46:21;9.20;99.90
10046;DHT22;5063;50.878;4.742;2023-04-25T06:48:47;9.40;99.90
10046;DHT22;5063;50.878;4.742;2023-04-25T06:51:13;9.60;99.90
10046;DHT22;5063;50.878;4.742;2023-04-25T06:53:39;9.70;99.90
10046;DHT22;5063;50.878;4.742;2023-04-25T06:56:05;9.80;99.90
10046;DHT22;5063;50.878;4.742;2023-04-25T06:58:31;10.00;99.90
10046;DHT22;5063;50.878;4.742;2023-04-25T07:00:57;10.10;99.90
10046;DHT22;5063;50.878;4.742;2023-04-25T07:03:23;10.00;99.90
10046;DHT22;5063;50.878;4.742;2023-04-25T07:05:49;9.90;99.90
10046;DHT22;5063;50.878;4.742;2023-04-25T07:08:15;9.90;99.90
10046;DHT22;5063;50.878;4.742;2023-04-25T07:10:41;9.70;99.90
10046;DHT22;5063;50.878;4.742;2023-04-25T07:13:07;9.70;99.90
10046;DHT22;5063;50.878;4.742;2023-04-25T07:15:33;9.50;99.90
10046;DHT22;5063;50.878;4.742;2023-04-25T07:17:59;9.40;99.90
10046;DHT22;5063;50.878;4.742;2023-04-25T07:20:25;9.50;99.90
10046;DHT22;5063;50.878;4.742;2023-04-25T07:22:50;9.30;99.90
10046;DHT22;5063;50.878;4.742;2023-04-25T07:25:17;9.40;99.90
10046;DHT22;5063;50.878;4.742;2023-04-25T07:27:42;9.60;99.90
10046;DHT22;5063;50.878;4.742;2023-04-25T07:30:08;9.90;99.90
10046;DHT22;5063;50.878;4.742;2023-04-25T07:32:34;10.10;99.90
10046;DHT22;5063;50.878;4.742;2023-04-25T07:35:00;10.40;99.90
10046;DHT22;5063;50.878;4.742;2023-04-25T07:37:27;10.60;99.90
10046;DHT22;5063;50.878;4.742;2023-04-25T07:39:53;10.60;99.90
10046;DHT22;5063;50.878;4.742;2023-04-25T07:42:18;10.50;99.90
10046;DHT22;5063;50.878;4.742;2023-04-25T07:44:44;10.50;99.90
10046;DHT22;5063;50.878;4.742;2023-04-25T07:47:10;10.80;99.90
10046;DHT22;5063;50.878;4.742;2023-04-25T07:49:36;10.90;99.90
10046;DHT22;5063;50.878;4.742;2023-04-25T07:52:03;10.90;99.90
10046;DHT22;5063;50.878;4.742;2023-04-25T07:54:29;11.10;99.90
10046;DHT22;5063;50.878;4.742;2023-04-25T07:56:55;11.20;99.90
10046;DHT22;5063;50.878;4.742;2023-04-25T07:59:21;11.40;99.90
10046;DHT22;5063;50.878;4.742;2023-04-25T08:01:47;11.50;99.90
10046;DHT22;5063;50.878;4.742;2023-04-25T08:04:13;11.50;99.90
10046;DHT22;5063;50.878;4.742;2023-04-25T08:06:39;11.60;99.90
10046;DHT22;5063;50.878;4.742;2023-04-25T08:09:06;11.80;99.90
10046;DHT22;5063;50.878;4.742;2023-04-25T08:11:32;12.00;99.90
10046;DHT22;5063;50.878;4.742;2023-04-25T08:13:57;12.20;99.90
10046;DHT22;5063;50.878;4.742;2023-04-25T08:16:23;12.10;99.90
10046;DHT22;5063;50.878;4.742;2023-04-25T08:18:50;11.40;99.90
10046;DHT22;5063;50.878;4.742;2023-04-25T08:21:16;11.00;99.90
10046;DHT22;5063;50.878;4.742;2023-04-25T08:23:42;10.50;99.90
10046;DHT22;5063;50.878;4.742;2023-04-25T08:26:07;10.20;99.90
10046;DHT22;5063;50.878;4.742;2023-04-25T08:28:33;10.20;99.90
10046;DHT22;5063;50.878;4.742;2023-04-25T08:30:59;10.20;99.90
10046;DHT22;5063;50.878;4.742;2023-04-25T08:33:27;9.90;99.90
10046;DHT22;5063;50.878;4.742;2023-04-25T08:35:54;9.80;99.90
10046;DHT22;5063;50.878;4.742;2023-04-25T08:38:19;9.60;99.90
10046;DHT22;5063;50.878;4.742;2023-04-25T08:40:49;9.50;99.90
10046;DHT22;5063;50.878;4.742;2023-04-25T08:43:18;9.50;99.90
10046;DHT22;5063;50.878;4.742;2023-04-25T08:45:44;9.70;99.90
10046;DHT22;5063;50.878;4.742;2023-04-25T08:48:12;9.70;99.90
10046;DHT22;5063;50.878;4.742;2023-04-25T08:50:52;9.60;99.90
10046;DHT22;5063;50.878;4.742;2023-04-25T08:53:25;9.60;99.90
10046;DHT22;5063;50.878;4.742;2023-04-25T08:55:56;9.80;99.90
10046;DHT22;5063;50.878;4.742;2023-04-25T08:58:22;9.90;99.90
10046;DHT22;5063;50.878;4.742;2023-04-25T09:00:49;10.40;99.90
10046;DHT22;5063;50.878;4.742;2023-04-25T09:03:16;10.90;99.90
10046;DHT22;5063;50.878;4.742;2023-04-25T09:05:42;11.50;99.90
10046;DHT22;5063;50.878;4.742;2023-04-25T09:08:08;12.00;99.90
10046;DHT22;5063;50.878;4.742;2023-04-25T09:10:34;12.30;99.90
10046;DHT22;5063;50.878;4.742;2023-04-25T09:15:32;12.50;99.90
10046;DHT22;5063;50.878;4.742;2023-04-25T09:17:59;13.50;99.90
10046;DHT22;5063;50.878;4.742;2023-04-25T09:20:25;14.50;99.90
10046;DHT22;5063;50.878;4.742;2023-04-25T09:23:04;16.30;99.90
10046;DHT22;5063;50.878;4.742;2023-04-25T09:25:37;17.90;99.90
10046;DHT22;5063;50.878;4.742;2023-04-25T09:28:05;18.00;99.90
10046;DHT22;5063;50.878;4.742;2023-04-25T09:30:33;17.40;99.90
10046;DHT22;5063;50.878;4.742;2023-04-25T09:33:07;16.50;99.90
10046;DHT22;5063;50.878;4.742;2023-04-25T09:35:38;15.00;99.90
10046;DHT22;5063;50.878;4.742;2023-04-25T09:40:40;12.30;99.90
10046;DHT22;5063;50.878;4.742;2023-04-25T09:43:23;11.80;99.90
10046;DHT22;5063;50.878;4.742;2023-04-25T09:45:49;11.40;99.90
10046;DHT22;5063;50.878;4.742;2023-04-25T09:48:22;11.10;99.90
10046;DHT22;5063;50.878;4.742;2023-04-25T09:53:43;11.00;99.90
10046;DHT22;5063;50.878;4.742;2023-04-25T09:56:11;11.00;99.90
10046;DHT22;5063;50.878;4.742;2023-04-25T09:58:38;10.80;99.90
10046;DHT22;5063;50.878;4.742;2023-04-25T10:01:09;10.70;99.90
10046;DHT22;5063;50.878;4.742;2023-04-25T10:03:36;10.60;99.90
10046;DHT22;5063;50.878;4.742;2023-04-25T10:06:09;10.50;99.90
10046;DHT22;5063;50.878;4.742;2023-04-25T10:08:38;10.50;99.90
10046;DHT22;5063;50.878;4.742;2023-04-25T10:11:05;10.80;99.90
10046;DHT22;5063;50.878;4.742;2023-04-25T10:13:32;11.00;99.90
10046;DHT22;5063;50.878;4.742;2023-04-25T10:15:59;11.20;99.90
10046;DHT22;5063;50.878;4.742;2023-04-25T10:18:27;11.30;99.90
10046;DHT22;5063;50.878;4.742;2023-04-25T10:20:57;11.60;99.90
10046;DHT22;5063;50.878;4.742;2023-04-25T10:23:23;11.90;99.90
10046;DHT22;5063;50.878;4.742;2023-04-25T10:25:53;12.30;99.90
10046;DHT22;5063;50.878;4.742;2023-04-25T10:28:20;12.70;99.90
10046;DHT22;5063;50.878;4.742;2023-04-25T10:31:02;12.90;99.90
10046;DHT22;5063;50.878;4.742;2023-04-25T10:33:43;12.50;99.90
10046;DHT22;5063;50.878;4.742;2023-04-25T10:36:13;11.80;99.90
10046;DHT22;5063;50.878;4.742;2023-04-25T10:38:41;11.80;99.90
10046;DHT22;5063;50.878;4.742;2023-04-25T10:41:09;11.90;99.90
10046;DHT22;5063;50.878;4.742;2023-04-25T10:43:40;11.90;99.90
10046;DHT22;5063;50.878;4.742;2023-04-25T10:48:48;12.10;99.90
10046;DHT22;5063;50.878;4.742;2023-04-25T10:51:19;12.00;99.90
10046;DHT22;5063;50.878;4.742;2023-04-25T10:56:22;12.10;99.90
10046;DHT22;5063;50.878;4.742;2023-04-25T10:58:48;12.40;99.90
10046;DHT22;5063;50.878;4.742;2023-04-25T11:01:21;13.20;99.90
10046;DHT22;5063;50.878;4.742;2023-04-25T11:03:57;13.90;99.90
10046;DHT22;5063;50.878;4.742;2023-04-25T11:06:31;13.50;99.90
10046;DHT22;5063;50.878;4.742;2023-04-25T11:09:01;14.10;99.90
10046;DHT22;5063;50.878;4.742;2023-04-25T11:11:28;14.50;99.90
10046;DHT22;5063;50.878;4.742;2023-04-25T11:13:54;14.60;99.90
10046;DHT22;5063;50.878;4.742;2023-04-25T11:16:24;14.20;99.90
10046;DHT22;5063;50.878;4.742;2023-04-25T11:18:50;13.70;99.90
10046;DHT22;5063;50.878;4.742;2023-04-25T11:21:15;13.20;99.90
10046;DHT22;5063;50.878;4.742;2023-04-25T11:23:45;13.20;99.90
10046;DHT22;5063;50.878;4.742;2023-04-25T11:26:13;12.70;99.90
10046;DHT22;5063;50.878;4.742;2023-04-25T11:28:39;12.60;99.90
10046;DHT22;5063;50.878;4.742;2023-04-25T11:31:05;12.80;99.90
10046;DHT22;5063;50.878;4.742;2023-04-25T11:33:31;13.10;99.90
10046;DHT22;5063;50.878;4.742;2023-04-25T11:35:56;12.50;99.90
10046;DHT22;5063;50.878;4.742;2023-04-25T11:38:23;12.60;99.90
10046;DHT22;5063;50.878;4.742;2023-04-25T11:40:53;12.60;99.90
10046;DHT22;5063;50.878;4.742;2023-04-25T11:43:22;12.60;99.90
10046;DHT22;5063;50.878;4.742;2023-04-25T11:45:51;12.70;99.90
10046;DHT22;5063;50.878;4.742;2023-04-25T11:48:20;13.00;99.90
10046;DHT22;5063;50.878;4.742;2023-04-25T11:50:46;13.30;99.90
10046;DHT22;5063;50.878;4.742;2023-04-25T11:53:12;13.60;99.90
10046;DHT22;5063;50.878;4.742;2023-04-25T11:55:38;14.50;99.90
10046;DHT22;5063;50.878;4.742;2023-04-25T11:58:05;14.80;99.90
10046;DHT22;5063;50.878;4.742;2023-04-25T12:00:32;14.90;99.90
10046;DHT22;5063;50.878;4.742;2023-04-25T12:02:58;14.40;99.90
10046;DHT22;5063;50.878;4.742;2023-04-25T12:05:26;14.20;99.90
10046;DHT22;5063;50.878;4.742;2023-04-25T12:07:52;14.60;99.90
10046;DHT22;5063;50.878;4.742;2023-04-25T12:10:19;14.10;99.90
10046;DHT22;5063;50.878;4.742;2023-04-25T12:12:46;13.30;99.90
10046;DHT22;5063;50.878;4.742;2023-04-25T12:15:16;12.80;99.90
10046;DHT22;5063;50.878;4.742;2023-04-25T12:17:45;12.70;99.90
10046;DHT22;5063;50.878;4.742;2023-04-25T12:20:20;12.40;99.90
10046;DHT22;5063;50.878;4.742;2023-04-25T12:22:47;12.70;99.90
10046;DHT22;5063;50.878;4.742;2023-04-25T12:25:33;12.70;99.90
10046;DHT22;5063;50.878;4.742;2023-04-25T12:28:23;12.60;99.90
10046;DHT22;5063;50.878;4.742;2023-04-25T12:33:22;13.20;99.90
10046;DHT22;5063;50.878;4.742;2023-04-25T12:35:48;13.40;99.90
10046;DHT22;5063;50.878;4.742;2023-04-25T12:40:53;13.20;99.90
10046;DHT22;5063;50.878;4.742;2023-04-25T12:43:19;13.40;99.90
10046;DHT22;5063;50.878;4.742;2023-04-25T12:45:49;13.90;99.90
10046;DHT22;5063;50.878;4.742;2023-04-25T12:48:18;13.80;99.90
10046;DHT22;5063;50.878;4.742;2023-04-25T12:50:45;13.90;99.90
10046;DHT22;5063;50.878;4.742;2023-04-25T12:53:13;13.90;99.90
10046;DHT22;5063;50.878;4.742;2023-04-25T12:55:38;13.80;99.90
10046;DHT22;5063;50.878;4.742;2023-04-25T12:58:04;13.70;99.90
10046;DHT22;5063;50.878;4.742;2023-04-25T13:00:30;13.90;99.90
10046;DHT22;5063;50.878;4.742;2023-04-25T13:02:57;13.90;99.90
10046;DHT22;5063;50.878;4.742;2023-04-25T13:05:23;14.10;99.90
10046;DHT22;5063;50.878;4.742;2023-04-25T13:07:49;14.50;99.90
10046;DHT22;5063;50.878;4.742;2023-04-25T13:10:14;14.30;99.90
10046;DHT22;5063;50.878;4.742;2023-04-25T13:12:41;13.70;99.90
10046;DHT22;5063;50.878;4.742;2023-04-25T13:15:07;13.40;99.90
10046;DHT22;5063;50.878;4.742;2023-04-25T13:17:34;13.10;99.90
10046;DHT22;5063;50.878;4.742;2023-04-25T13:20:00;13.00;99.90
10046;DHT22;5063;50.878;4.742;2023-04-25T13:22:26;12.60;99.90
10046;DHT22;5063;50.878;4.742;2023-04-25T13:24:51;12.30;99.90
10046;DHT22;5063;50.878;4.742;2023-04-25T13:27:17;12.20;99.90
10046;DHT22;5063;50.878;4.742;2023-04-25T13:29:43;12.40;99.90
10046;DHT22;5063;50.878;4.742;2023-04-25T13:32:09;12.40;99.90
10046;DHT22;5063;50.878;4.742;2023-04-25T13:34:35;12.70;99.90
10046;DHT22;5063;50.878;4.742;2023-04-25T13:37:01;13.10;99.90
10046;DHT22;5063;50.878;4.742;2023-04-25T13:39:26;13.70;99.90
10046;DHT22;5063;50.878;4.742;2023-04-25T13:41:52;14.00;99.90
10046;DHT22;5063;50.878;4.742;2023-04-25T13:44:18;13.90;99.90
10046;DHT22;5063;50.878;4.742;2023-04-25T13:46:44;14.10;99.90
10046;DHT22;5063;50.878;4.742;2023-04-25T13:49:10;14.20;99.90
10046;DHT22;5063;50.878;4.742;2023-04-25T13:51:36;14.30;99.90
10046;DHT22;5063;50.878;4.742;2023-04-25T13:54:02;13.70;99.90
10046;DHT22;5063;50.878;4.742;2023-04-25T13:56:28;13.30;99.90
10046;DHT22;5063;50.878;4.742;2023-04-25T13:58:54;13.50;99.90
10046;DHT22;5063;50.878;4.742;2023-04-25T14:01:20;13.40;99.90
10046;DHT22;5063;50.878;4.742;2023-04-25T14:03:46;13.20;99.90
10046;DHT22;5063;50.878;4.742;2023-04-25T14:06:12;13.40;99.90
10046;DHT22;5063;50.878;4.742;2023-04-25T14:08:39;13.80;99.90
10046;DHT22;5063;50.878;4.742;2023-04-25T14:11:04;14.00;99.90
10046;DHT22;5063;50.878;4.742;2023-04-25T14:13:31;14.00;99.90
10046;DHT22;5063;50.878;4.742;2023-04-25T14:15:56;13.70;99.90
10046;DHT22;5063;50.878;4.742;2023-04-25T14:18:22;13.40;99.90
10046;DHT22;5063;50.878;4.742;2023-04-25T14:20:48;13.30;99.90
10046;DHT22;5063;50.878;4.742;2023-04-25T14:23:14;13.20;99.90
10046;DHT22;5063;50.878;4.742;2023-04-25T14:25:40;13.10;99.90
10046;DHT22;5063;50.878;4.742;2023-04-25T14:28:07;13.30;99.90
10046;DHT22;5063;50.878;4.742;2023-04-25T14:30:33;13.40;99.90
10046;DHT22;5063;50.878;4.742;2023-04-25T14:32:58;13.40;99.90
10046;DHT22;5063;50.878;4.742;2023-04-25T14:35:24;13.30;99.90
10046;DHT22;5063;50.878;4.742;2023-04-25T14:37:50;13.50;99.90
10046;DHT22;5063;50.878;4.742;2023-04-25T14:40:16;13.30;99.90
10046;DHT22;5063;50.878;4.742;2023-04-25T14:42:42;13.20;99.90
10046;DHT22;5063;50.878;4.742;2023-04-25T14:45:09;13.00;99.90
10046;DHT22;5063;50.878;4.742;2023-04-25T14:47:36;12.90;99.90
10046;DHT22;5063;50.878;4.742;2023-04-25T14:50:02;12.90;99.90
10046;DHT22;5063;50.878;4.742;2023-04-25T14:52:29;12.70;99.90
10046;DHT22;5063;50.878;4.742;2023-04-25T14:54:56;12.50;99.90
10046;DHT22;5063;50.878;4.742;2023-04-25T14:57:21;12.40;99.90
10046;DHT22;5063;50.878;4.742;2023-04-25T14:59:47;12.20;99.90
10046;DHT22;5063;50.878;4.742;2023-04-25T15:02:13;12.60;99.90
10046;DHT22;5063;50.878;4.742;2023-04-25T15:04:39;12.80;99.90
10046;DHT22;5063;50.878;4.742;2023-04-25T15:07:05;13.10;99.90
10046;DHT22;5063;50.878;4.742;2023-04-25T15:09:30;13.10;99.90
10046;DHT22;5063;50.878;4.742;2023-04-25T15:11:57;13.20;99.90
10046;DHT22;5063;50.878;4.742;2023-04-25T15:14:23;13.00;99.90
10046;DHT22;5063;50.878;4.742;2023-04-25T15:16:48;12.80;99.90
10046;DHT22;5063;50.878;4.742;2023-04-25T15:19:14;12.80;99.90
10046;DHT22;5063;50.878;4.742;2023-04-25T15:21:40;12.70;99.90
10046;DHT22;5063;50.878;4.742;2023-04-25T15:24:06;12.80;99.90
10046;DHT22;5063;50.878;4.742;2023-04-25T15:26:33;12.90;99.90
10046;DHT22;5063;50.878;4.742;2023-04-25T15:28:58;13.10;99.90
10046;DHT22;5063;50.878;4.742;2023-04-25T15:31:24;12.60;99.90
10046;DHT22;5063;50.878;4.742;2023-04-25T15:33:50;12.30;99.90
10046;DHT22;5063;50.878;4.742;2023-04-25T15:36:16;12.10;99.90
10046;DHT22;5063;50.878;4.742;2023-04-25T15:38:43;12.00;99.90
10046;DHT22;5063;50.878;4.742;2023-04-25T15:41:09;12.00;99.90
10046;DHT22;5063;50.878;4.742;2023-04-25T15:43:35;11.80;99.90
10046;DHT22;5063;50.878;4.742;2023-04-25T15:46:04;11.90;99.90
10046;DHT22;5063;50.878;4.742;2023-04-25T15:48:30;11.70;99.90
10046;DHT22;5063;50.878;4.742;2023-04-25T15:50:57;11.70;99.90
10046;DHT22;5063;50.878;4.742;2023-04-25T15:53:23;11.60;99.90
10046;DHT22;5063;50.878;4.742;2023-04-25T15:55:48;11.50;99.90
10046;DHT22;5063;50.878;4.742;2023-04-25T15:58:14;11.40;99.90
10046;DHT22;5063;50.878;4.742;2023-04-25T16:00:40;11.40;99.90
10046;DHT22;5063;50.878;4.742;2023-04-25T16:03:06;11.40;99.90
10046;DHT22;5063;50.878;4.742;2023-04-25T16:05:32;11.30;99.90
10046;DHT22;5063;50.878;4.742;2023-04-25T16:07:57;11.40;99.90
10046;DHT22;5063;50.878;4.742;2023-04-25T16:10:24;11.30;99.90